Time,TemperatureF,DewpointF,PressureIn,WindDirection,WindDirectionDegrees,WindSpeedMPH,WindSpeedGustMPH,Humidity,HourlyPrecipIn,Conditions,Clouds,dailyrainin,SoftwareType,DateUTC
2013-10-09 00:01:00,45.3,39.5,30.34,WNW,286,0.0,0.0,80,0.00,,,0.00,WeatherCatV1.10B1784,2013-10-09 04:01:00,
2013-10-09 00:06:00,45.1,39.0,30.34,WNW,286,0.0,0.0,79,0.00,,,0.00,WeatherCatV1.10B1784,2013-10-09 04:06:00,
2013-10-09 00:11:00,44.9,39.1,30.34,WNW,286,0.0,0.0,80,0.00,,,0.00,WeatherCatV1.10B1784,2013-10-09 04:11:00,
2013-10-09 00:16:00,44.7,39.2,30.34,WNW,286,0.0,0.0,81,0.00,,,0.00,WeatherCatV1.10B1784,2013-10-09 04:16:00,
2013-10-09 00:21:00,44.5,38.4,30.34,WNW,286,0.0,0.0,79,0.00,,,0.00,WeatherCatV1.10B1784,2013-10-09 04:21:00,
2013-10-09 00:26:00,44.4,38.9,30.34,WNW,286,0.0,0.0,81,0.00,,,0.00,WeatherCatV1.10B1784,2013-10-09 04:26:00,
2013-10-09 00:31:00,44.3,38.5,30.34,WNW,286,0.0,0.0,80,0.00,,,0.00,WeatherCatV1.10B1784,2013-10-09 04:31:00,
2013-10-09 00:36:00,44.3,38.8,30.34,WNW,286,0.0,0.0,81,0.00,,,0.00,WeatherCatV1.10B1784,2013-10-09 04:36:00,
2013-10-09 00:41:00,44.2,38.4,30.34,WNW,286,0.0,0.0,80,0.00,,,0.00,WeatherCatV1.10B1784,2013-10-09 04:41:00,
2013-10-09 00:46:00,44.0,38.9,30.35,WNW,286,0.0,0.0,82,0.00,,,0.00,WeatherCatV1.10B1784,2013-10-09 04:46:00,
2013-10-09 00:51:00,44.0,38.9,30.34,WNW,286,0.0,0.0,82,0.00,,,0.00,WeatherCatV1.10B1784,2013-10-09 04:51:00,
2013-10-09 00:56:00,44.0,37.9,30.35,WNW,286,0.0,0.0,79,0.00,,,0.00,WeatherCatV1.10B1784,2013-10-09 04:56:00,
2013-10-09 01:01:00,44.1,38.3,30.35,WNW,286,0.0,0.0,80,0.00,,,0.00,WeatherCatV1.10B1784,2013-10-09 05:01:00,
2013-10-09 01:06:00,44.1,38.0,30.35,WNW,286,0.0,0.0,79,0.00,,,0.00,WeatherCatV1.10B1784,2013-10-09 05:06:00,
2013-10-09 01:11:00,44.0,38.5,30.35,WNW,286,0.0,0.0,81,0.00,,,0.00,WeatherCatV1.10B1784,2013-10-09 05:11:00,
2013-10-09 01:16:00,44.0,38.9,30.35,WNW,286,0.0,0.0,82,0.00,,,0.00,WeatherCatV1.10B1784,2013-10-09 05:16:00,
2013-10-09 01:21:00,43.9,38.1,30.35,WNW,286,0.0,0.0,80,0.00,,,0.00,WeatherCatV1.10B1784,2013-10-09 05:21:00,
2013-10-09 01:26:00,43.8,39.0,30.35,WNW,286,0.0,0.0,83,0.00,,,0.00,WeatherCatV1.10B1784,2013-10-09 05:26:00,
2013-10-09 01:31:00,43.6,38.5,30.35,WNW,286,0.0,0.0,82,0.00,,,0.00,WeatherCatV1.10B1784,2013-10-09 05:31:00,
2013-10-09 01:36:00,43.6,38.2,30.35,WNW,286,0.0,0.0,81,0.00,,,0.00,WeatherCatV1.10B1784,2013-10-09 05:36:00,
2013-10-09 01:41:00,43.6,39.1,30.36,WNW,286,0.0,0.0,84,0.00,,,0.00,WeatherCatV1.10B1784,2013-10-09 05:41:00,
2013-10-09 01:46:00,43.4,38.3,30.35,WNW,286,0.0,0.0,82,0.00,,,0.00,WeatherCatV1.10B1784,2013-10-09 05:46:00,
2013-10-09 01:51:00,43.4,38.6,30.35,WNW,286,0.0,0.0,83,0.00,,,0.00,WeatherCatV1.10B1784,2013-10-09 05:51:00,
2013-10-09 01:56:00,43.4,38.6,30.35,WNW,286,0.0,0.0,83,0.00,,,0.00,WeatherCatV1.10B1784,2013-10-09 05:56:00,
2013-10-09 02:01:00,43.3,39.1,30.35,WNW,286,0.0,0.0,85,0.00,,,0.00,WeatherCatV1.10B1784,2013-10-09 06:01:00,
2013-10-09 02:06:00,43.2,38.4,30.35,WNW,286,0.0,0.0,83,0.00,,,0.00,WeatherCatV1.10B1784,2013-10-09 06:06:00,
2013-10-09 02:11:00,43.2,38.4,30.35,WNW,286,0.0,0.0,83,0.00,,,0.00,WeatherCatV1.10B1784,2013-10-09 06:11:00,
2013-10-09 02:16:00,43.2,38.7,30.36,WNW,286,0.0,0.0,84,0.00,,,0.00,WeatherCatV1.10B1784,2013-10-09 06:16:00,
2013-10-09 02:21:00,43.1,38.9,30.36,WNW,286,0.0,0.0,85,0.00,,,0.00,WeatherCatV1.10B1784,2013-10-09 06:21:00,
2013-10-09 02:26:00,43.0,38.2,30.36,WNW,286,0.0,0.0,83,0.00,,,0.00,WeatherCatV1.10B1784,2013-10-09 06:26:00,
2013-10-09 02:31:00,43.0,38.2,30.36,WNW,286,0.0,0.0,83,0.00,,,0.00,WeatherCatV1.10B1784,2013-10-09 06:31:00,
2013-10-09 02:36:00,42.9,38.4,30.36,WNW,286,0.0,0.0,84,0.00,,,0.00,WeatherCatV1.10B1784,2013-10-09 06:36:00,
2013-10-09 02:41:00,42.7,37.6,30.36,WNW,286,0.0,0.0,82,0.00,,,0.00,WeatherCatV1.10B1784,2013-10-09 06:41:00,
2013-10-09 02:46:00,42.7,37.9,30.36,WNW,286,0.0,0.0,83,0.00,,,0.00,WeatherCatV1.10B1784,2013-10-09 06:46:00,
2013-10-09 02:51:00,42.6,37.8,30.36,WNW,286,0.0,0.0,83,0.00,,,0.00,WeatherCatV1.10B1784,2013-10-09 06:51:00,
2013-10-09 02:56:00,42.5,38.0,30.35,WNW,286,0.0,0.0,84,0.00,,,0.00,WeatherCatV1.10B1784,2013-10-09 06:56:00,
2013-10-09 03:01:00,42.4,38.2,30.36,WNW,286,0.0,0.0,85,0.00,,,0.00,WeatherCatV1.10B1784,2013-10-09 07:01:00,
2013-10-09 03:06:00,42.4,37.6,30.36,WNW,286,0.0,0.0,83,0.00,,,0.00,WeatherCatV1.10B1784,2013-10-09 07:06:00,
2013-10-09 03:11:00,42.5,37.7,30.36,WNW,286,0.0,0.0,83,0.00,,,0.00,WeatherCatV1.10B1784,2013-10-09 07:11:00,
2013-10-09 03:16:00,42.6,37.8,30.36,WNW,286,0.0,0.0,83,0.00,,,0.00,WeatherCatV1.10B1784,2013-10-09 07:16:00,
2013-10-09 03:21:00,42.7,37.6,30.36,WNW,286,0.0,0.0,82,0.00,,,0.00,WeatherCatV1.10B1784,2013-10-09 07:21:00,
2013-10-09 03:26:00,42.7,37.6,30.36,WNW,286,0.0,0.0,82,0.00,,,0.00,WeatherCatV1.10B1784,2013-10-09 07:26:00,
2013-10-09 03:31:00,42.7,37.9,30.36,WNW,286,0.0,0.0,83,0.00,,,0.00,WeatherCatV1.10B1784,2013-10-09 07:31:00,
2013-10-09 03:36:00,42.6,37.5,30.36,WNW,286,0.0,0.0,82,0.00,,,0.00,WeatherCatV1.10B1784,2013-10-09 07:36:00,
2013-10-09 03:41:00,42.5,37.7,30.37,WNW,286,0.0,0.0,83,0.00,,,0.00,WeatherCatV1.10B1784,2013-10-09 07:41:00,
2013-10-09 03:46:00,42.6,37.5,30.37,WNW,286,0.0,0.0,82,0.00,,,0.00,WeatherCatV1.10B1784,2013-10-09 07:46:00,
2013-10-09 03:51:00,42.6,37.5,30.36,WNW,286,0.0,0.0,82,0.00,,,0.00,WeatherCatV1.10B1784,2013-10-09 07:51:00,
2013-10-09 03:56:00,42.5,37.7,30.37,WNW,286,0.0,0.0,83,0.00,,,0.00,WeatherCatV1.10B1784,2013-10-09 07:56:00,
2013-10-09 04:01:00,42.4,37.6,30.36,WNW,286,0.0,0.0,83,0.00,,,0.00,WeatherCatV1.10B1784,2013-10-09 08:01:00,
2013-10-09 04:06:00,42.4,37.9,30.37,WNW,286,0.0,0.0,84,0.00,,,0.00,WeatherCatV1.10B1784,2013-10-09 08:06:00,
2013-10-09 04:11:00,42.3,37.5,30.37,WNW,286,0.0,0.0,83,0.00,,,0.00,WeatherCatV1.10B1784,2013-10-09 08:11:00,
2013-10-09 04:16:00,42.3,37.5,30.38,WNW,286,0.0,0.0,83,0.00,,,0.00,WeatherCatV1.10B1784,2013-10-09 08:16:00,
2013-10-09 04:21:00,42.4,37.9,30.38,WNW,286,0.0,0.0,84,0.00,,,0.00,WeatherCatV1.10B1784,2013-10-09 08:21:00,
2013-10-09 04:26:00,42.4,37.9,30.38,WNW,286,0.0,0.0,84,0.00,,,0.00,WeatherCatV1.10B1784,2013-10-09 08:26:00,
2013-10-09 04:31:00,42.4,37.6,30.38,WNW,286,0.0,0.0,83,0.00,,,0.00,WeatherCatV1.10B1784,2013-10-09 08:31:00,
2013-10-09 04:36:00,42.5,37.7,30.38,WNW,286,0.0,0.0,83,0.00,,,0.00,WeatherCatV1.10B1784,2013-10-09 08:36:00,
2013-10-09 04:41:00,42.4,37.9,30.38,WNW,286,0.0,0.0,84,0.00,,,0.00,WeatherCatV1.10B1784,2013-10-09 08:41:00,
2013-10-09 04:46:00,42.2,37.7,30.38,WNW,286,0.0,0.0,84,0.00,,,0.00,WeatherCatV1.10B1784,2013-10-09 08:46:00,
2013-10-09 04:51:00,42.0,37.5,30.38,WNW,286,0.0,0.0,84,0.00,,,0.00,WeatherCatV1.10B1784,2013-10-09 08:51:00,
2013-10-09 04:56:00,41.9,37.7,30.38,WNW,286,0.0,0.0,85,0.00,,,0.00,WeatherCatV1.10B1784,2013-10-09 08:56:00,
2013-10-09 05:01:00,41.8,37.3,30.39,WNW,286,0.0,0.0,84,0.00,,,0.00,WeatherCatV1.10B1784,2013-10-09 09:01:00,
2013-10-09 05:06:00,41.7,37.2,30.38,WNW,286,0.0,0.0,84,0.00,,,0.00,WeatherCatV1.10B1784,2013-10-09 09:06:00,
2013-10-09 05:11:00,41.7,37.2,30.38,WNW,286,0.0,0.0,84,0.00,,,0.00,WeatherCatV1.10B1784,2013-10-09 09:11:00,
2013-10-09 05:16:00,41.7,37.8,30.38,WNW,286,0.0,0.0,86,0.00,,,0.00,WeatherCatV1.10B1784,2013-10-09 09:16:00,
2013-10-09 05:21:00,41.7,37.8,30.38,WNW,286,0.0,0.0,86,0.00,,,0.00,WeatherCatV1.10B1784,2013-10-09 09:21:00,
2013-10-09 05:26:00,41.6,37.4,30.38,WNW,286,0.0,0.0,85,0.00,,,0.00,WeatherCatV1.10B1784,2013-10-09 09:26:00,
2013-10-09 05:31:00,41.6,37.7,30.39,WNW,286,0.0,0.0,86,0.00,,,0.00,WeatherCatV1.10B1784,2013-10-09 09:31:00,
2013-10-09 05:36:00,41.6,37.7,30.39,WNW,286,0.0,0.0,86,0.00,,,0.00,WeatherCatV1.10B1784,2013-10-09 09:36:00,
2013-10-09 05:41:00,41.6,37.7,30.39,WNW,286,0.0,0.0,86,0.00,,,0.00,WeatherCatV1.10B1784,2013-10-09 09:41:00,
2013-10-09 05:46:00,41.6,37.7,30.39,WNW,286,0.0,0.0,86,0.00,,,0.00,WeatherCatV1.10B1784,2013-10-09 09:46:00,
2013-10-09 05:51:00,41.6,38.0,30.39,WNW,286,0.0,0.0,87,0.00,,,0.00,WeatherCatV1.10B1784,2013-10-09 09:51:00,
2013-10-09 05:56:00,41.5,37.6,30.40,WNW,286,0.0,0.0,86,0.00,,,0.00,WeatherCatV1.10B1784,2013-10-09 09:56:00,
2013-10-09 06:01:00,41.5,37.6,30.39,WNW,286,0.0,0.0,86,0.00,,,0.00,WeatherCatV1.10B1784,2013-10-09 10:01:00,
2013-10-09 06:06:00,41.5,37.6,30.39,WNW,286,0.0,0.0,86,0.00,,,0.00,WeatherCatV1.10B1784,2013-10-09 10:06:00,
2013-10-09 06:11:00,41.5,37.6,30.40,WNW,286,0.0,0.0,86,0.00,,,0.00,WeatherCatV1.10B1784,2013-10-09 10:11:00,
2013-10-09 06:16:00,41.5,37.6,30.39,WNW,286,0.0,0.0,86,0.00,,,0.00,WeatherCatV1.10B1784,2013-10-09 10:16:00,
2013-10-09 06:21:00,41.5,37.9,30.40,WNW,286,0.0,0.0,87,0.00,,,0.00,WeatherCatV1.10B1784,2013-10-09 10:21:00,
2013-10-09 06:26:00,41.5,37.9,30.40,WNW,286,0.0,0.0,87,0.00,,,0.00,WeatherCatV1.10B1784,2013-10-09 10:26:00,
2013-10-09 06:31:00,41.5,37.6,30.40,WNW,286,0.0,0.0,86,0.00,,,0.00,WeatherCatV1.10B1784,2013-10-09 10:31:00,
2013-10-09 06:36:00,41.5,37.6,30.40,WNW,286,0.0,0.0,86,0.00,,,0.00,WeatherCatV1.10B1784,2013-10-09 10:36:00,
2013-10-09 06:41:00,41.6,37.7,30.40,WNW,286,0.0,0.0,86,0.00,,,0.00,WeatherCatV1.10B1784,2013-10-09 10:41:00,
2013-10-09 06:46:00,41.7,38.1,30.40,WNW,286,0.0,0.0,87,0.00,,,0.00,WeatherCatV1.10B1784,2013-10-09 10:46:00,
2013-10-09 06:51:00,41.6,38.0,30.40,WNW,286,0.0,0.0,87,0.00,,,0.00,WeatherCatV1.10B1784,2013-10-09 10:51:00,
2013-10-09 06:56:00,41.6,38.0,30.41,WNW,286,0.0,0.0,87,0.00,,,0.00,WeatherCatV1.10B1784,2013-10-09 10:56:00,
2013-10-09 07:01:00,41.7,38.4,30.41,WNW,286,0.0,0.0,88,0.00,,,0.00,WeatherCatV1.10B1784,2013-10-09 11:01:00,
2013-10-09 07:06:00,41.7,38.4,30.41,WNW,286,0.0,0.0,88,0.00,,,0.00,WeatherCatV1.10B1784,2013-10-09 11:06:00,
2013-10-09 07:11:00,41.8,38.8,30.41,WNW,286,0.0,0.0,89,0.00,,,0.00,WeatherCatV1.10B1784,2013-10-09 11:11:00,
2013-10-09 07:16:00,41.9,38.6,30.41,WNW,286,0.0,0.0,88,0.00,,,0.00,WeatherCatV1.10B1784,2013-10-09 11:16:00,
2013-10-09 07:21:00,42.1,38.8,30.41,WNW,286,0.0,0.0,88,0.00,,,0.00,WeatherCatV1.10B1784,2013-10-09 11:21:00,
2013-10-09 07:26:00,42.2,38.6,30.42,WNW,286,0.0,0.0,87,0.00,,,0.00,WeatherCatV1.10B1784,2013-10-09 11:26:00,
2013-10-09 07:31:00,42.5,39.2,30.42,WNW,286,0.0,0.0,88,0.00,,,0.00,WeatherCatV1.10B1784,2013-10-09 11:31:00,
2013-10-09 07:36:00,42.7,39.1,30.41,WNW,286,0.0,0.0,87,0.00,,,0.00,WeatherCatV1.10B1784,2013-10-09 11:36:00,
2013-10-09 07:41:00,42.9,39.3,30.42,WNW,286,0.0,0.0,87,0.00,,,0.00,WeatherCatV1.10B1784,2013-10-09 11:41:00,
2013-10-09 07:46:00,43.1,39.5,30.42,WNW,286,0.0,0.0,87,0.00,,,0.00,WeatherCatV1.10B1784,2013-10-09 11:46:00,
2013-10-09 07:51:00,43.2,39.3,30.42,WNW,286,0.0,0.0,86,0.00,,,0.00,WeatherCatV1.10B1784,2013-10-09 11:51:00,
2013-10-09 07:56:00,43.4,39.5,30.42,WNW,286,0.0,0.0,86,0.00,,,0.00,WeatherCatV1.10B1784,2013-10-09 11:56:00,
2013-10-09 08:01:00,43.6,39.7,30.42,WNW,286,0.0,0.0,86,0.00,,,0.00,WeatherCatV1.10B1784,2013-10-09 12:01:00,
2013-10-09 08:03:00,43.6,39.7,30.42,WNW,286,0.0,0.0,86,0.00,,,0.00,WeatherCatV1.10B1784,2013-10-09 12:03:00,
2013-10-09 08:08:00,43.8,40.2,30.42,WNW,286,0.0,0.0,87,0.00,,,0.00,WeatherCatV1.10B1784,2013-10-09 12:08:00,
2013-10-09 08:13:00,44.1,40.5,30.42,WNW,286,0.0,0.0,87,0.00,,,0.00,WeatherCatV1.10B1784,2013-10-09 12:13:00,
2013-10-09 08:18:00,44.2,40.3,30.43,WNW,286,0.0,0.0,86,0.00,,,0.00,WeatherCatV1.10B1784,2013-10-09 12:18:00,
2013-10-09 08:23:00,44.3,40.1,30.43,WNW,286,0.0,0.0,85,0.00,,,0.00,WeatherCatV1.10B1784,2013-10-09 12:23:00,
2013-10-09 08:28:00,44.5,40.6,30.43,WNW,286,0.0,0.0,86,0.00,,,0.00,WeatherCatV1.10B1784,2013-10-09 12:28:00,
2013-10-09 08:33:00,44.6,40.4,30.43,WNW,286,0.0,0.0,85,0.00,,,0.00,WeatherCatV1.10B1784,2013-10-09 12:33:00,
2013-10-09 08:38:00,44.7,40.2,30.43,WNW,286,0.0,0.0,84,0.00,,,0.00,WeatherCatV1.10B1784,2013-10-09 12:38:00,
2013-10-09 08:43:00,44.9,40.7,30.43,WNW,286,0.0,0.0,85,0.00,,,0.00,WeatherCatV1.10B1784,2013-10-09 12:43:00,
2013-10-09 08:48:00,45.2,40.7,30.43,WNW,286,0.0,0.0,84,0.00,,,0.00,WeatherCatV1.10B1784,2013-10-09 12:48:00,
2013-10-09 08:53:00,45.6,41.0,30.43,WNW,286,0.0,0.0,84,0.00,,,0.00,WeatherCatV1.10B1784,2013-10-09 12:53:00,
2013-10-09 08:58:00,46.2,41.3,30.43,WNW,286,0.0,0.0,83,0.00,,,0.00,WeatherCatV1.10B1784,2013-10-09 12:58:00,
2013-10-09 09:03:00,46.8,41.6,30.44,ENE,70,0.0,5.0,82,0.00,,,0.00,WeatherCatV1.10B1784,2013-10-09 13:03:00,
2013-10-09 09:08:00,47.8,42.3,30.43,ENE,71,0.0,2.0,81,0.00,,,0.00,WeatherCatV1.10B1784,2013-10-09 13:08:00,
2013-10-09 09:13:00,48.5,42.6,30.44,ENE,67,0.0,2.0,80,0.00,,,0.00,WeatherCatV1.10B1784,2013-10-09 13:13:00,
2013-10-09 09:18:00,49.3,42.7,30.44,North,354,0.0,10.0,78,0.00,,,0.00,WeatherCatV1.10B1784,2013-10-09 13:18:00,
2013-10-09 09:23:00,50.0,42.7,30.44,ESE,109,3.0,3.0,76,0.00,,,0.00,WeatherCatV1.10B1784,2013-10-09 13:23:00,
2013-10-09 09:28:00,50.6,43.3,30.44,ESE,106,0.0,2.0,76,0.00,,,0.00,WeatherCatV1.10B1784,2013-10-09 13:28:00,
2013-10-09 09:33:00,51.1,43.5,30.44,ESE,106,0.0,3.0,75,0.00,,,0.00,WeatherCatV1.10B1784,2013-10-09 13:33:00,
2013-10-09 09:38:00,51.7,44.0,30.44,SE,129,0.0,6.0,75,0.00,,,0.00,WeatherCatV1.10B1784,2013-10-09 13:38:00,
2013-10-09 09:43:00,52.2,44.2,30.44,NNE,21,0.0,1.0,74,0.00,,,0.00,WeatherCatV1.10B1784,2013-10-09 13:43:00,
2013-10-09 09:48:00,52.4,44.0,30.45,NNE,32,0.0,0.0,73,0.00,,,0.00,WeatherCatV1.10B1784,2013-10-09 13:48:00,
2013-10-09 09:53:00,52.8,44.0,30.45,WNW,283,0.0,4.0,72,0.00,,,0.00,WeatherCatV1.10B1784,2013-10-09 13:53:00,
2013-10-09 09:58:00,53.2,44.8,30.45,West,279,0.0,1.0,73,0.00,,,0.00,WeatherCatV1.10B1784,2013-10-09 13:58:00,
2013-10-09 10:03:00,54.0,45.5,30.45,East,91,1.0,9.0,73,0.00,,,0.00,WeatherCatV1.10B1784,2013-10-09 14:03:00,
2013-10-09 10:08:00,54.4,45.9,30.45,ENE,65,0.0,0.0,73,0.00,,,0.00,WeatherCatV1.10B1784,2013-10-09 14:08:00,
2013-10-09 10:13:00,54.7,45.1,30.45,SE,135,1.0,6.0,70,0.00,,,0.00,WeatherCatV1.10B1784,2013-10-09 14:13:00,
2013-10-09 10:18:00,54.8,45.6,30.44,NW,321,0.0,2.0,71,0.00,,,0.00,WeatherCatV1.10B1784,2013-10-09 14:18:00,
2013-10-09 10:23:00,54.8,45.6,30.44,ENE,66,3.0,6.0,71,0.00,,,0.00,WeatherCatV1.10B1784,2013-10-09 14:23:00,
2013-10-09 10:28:00,54.7,45.5,30.44,NE,36,0.0,5.0,71,0.00,,,0.00,WeatherCatV1.10B1784,2013-10-09 14:28:00,
2013-10-09 10:33:00,55.0,45.4,30.44,SE,134,5.0,5.0,70,0.00,,,0.00,WeatherCatV1.10B1784,2013-10-09 14:33:00,
2013-10-09 10:38:00,55.4,45.8,30.44,ESE,106,0.0,6.0,70,0.00,,,0.00,WeatherCatV1.10B1784,2013-10-09 14:38:00,
2013-10-09 10:43:00,55.5,45.5,30.44,NNE,30,0.0,4.0,69,0.00,,,0.00,WeatherCatV1.10B1784,2013-10-09 14:43:00,
2013-10-09 10:48:00,55.6,45.2,30.43,ENE,75,0.0,2.0,68,0.00,,,0.00,WeatherCatV1.10B1784,2013-10-09 14:48:00,
2013-10-09 10:53:00,56.0,46.0,30.43,ESE,102,0.0,7.0,69,0.00,,,0.00,WeatherCatV1.10B1784,2013-10-09 14:53:00,
2013-10-09 10:58:00,56.4,45.2,30.43,ESE,123,0.0,12.0,66,0.00,,,0.00,WeatherCatV1.10B1784,2013-10-09 14:58:00,
2013-10-09 11:03:00,56.3,45.5,30.44,ENE,59,0.0,0.0,67,0.00,,,0.00,WeatherCatV1.10B1784,2013-10-09 15:03:00,
2013-10-09 11:08:00,56.1,45.7,30.44,NE,53,0.0,1.0,68,0.00,,,0.00,WeatherCatV1.10B1784,2013-10-09 15:08:00,
2013-10-09 11:13:00,55.8,45.0,30.43,ENE,77,0.0,4.0,67,0.00,,,0.00,WeatherCatV1.10B1784,2013-10-09 15:13:00,
2013-10-09 11:18:00,55.8,45.4,30.43,ENE,76,2.0,2.0,68,0.00,,,0.00,WeatherCatV1.10B1784,2013-10-09 15:18:00,
2013-10-09 11:23:00,56.5,46.1,30.43,ESE,122,0.0,2.0,68,0.00,,,0.00,WeatherCatV1.10B1784,2013-10-09 15:23:00,
2013-10-09 11:28:00,57.0,46.2,30.43,SE,129,3.0,4.0,67,0.00,,,0.00,WeatherCatV1.10B1784,2013-10-09 15:28:00,
2013-10-09 11:33:00,57.5,46.6,30.43,SE,132,0.0,6.0,67,0.00,,,0.00,WeatherCatV1.10B1784,2013-10-09 15:33:00,
2013-10-09 11:38:00,57.3,45.6,30.43,ENE,71,1.0,6.0,65,0.00,,,0.00,WeatherCatV1.10B1784,2013-10-09 15:38:00,
2013-10-09 11:43:00,57.2,45.1,30.43,ENE,76,1.0,1.0,64,0.00,,,0.00,WeatherCatV1.10B1784,2013-10-09 15:43:00,
2013-10-09 11:48:00,57.5,45.4,30.43,SE,133,6.0,7.0,64,0.00,,,0.00,WeatherCatV1.10B1784,2013-10-09 15:48:00,
2013-10-09 11:53:00,57.8,45.7,30.43,SE,133,1.0,2.0,64,0.00,,,0.00,WeatherCatV1.10B1784,2013-10-09 15:53:00,
2013-10-09 11:58:00,57.8,45.7,30.43,SE,134,2.0,6.0,64,0.00,,,0.00,WeatherCatV1.10B1784,2013-10-09 15:58:00,
2013-10-09 12:03:00,57.8,44.4,30.42,SE,134,0.0,3.0,61,0.00,,,0.00,WeatherCatV1.10B1784,2013-10-09 16:03:00,
2013-10-09 12:08:00,57.7,45.6,30.42,ESE,106,0.0,0.0,64,0.00,,,0.00,WeatherCatV1.10B1784,2013-10-09 16:08:00,
2013-10-09 12:13:00,57.7,45.2,30.42,East,88,4.0,4.0,63,0.00,,,0.00,WeatherCatV1.10B1784,2013-10-09 16:13:00,
2013-10-09 12:18:00,58.0,45.1,30.42,SE,133,0.0,3.0,62,0.00,,,0.00,WeatherCatV1.10B1784,2013-10-09 16:18:00,
2013-10-09 12:23:00,58.3,45.3,30.42,ENE,75,2.0,6.0,62,0.00,,,0.00,WeatherCatV1.10B1784,2013-10-09 16:23:00,
2013-10-09 12:28:00,58.5,44.2,30.42,NNE,23,2.0,4.0,59,0.00,,,0.00,WeatherCatV1.10B1784,2013-10-09 16:28:00,
2013-10-09 12:33:00,58.6,45.2,30.42,North,3,0.0,3.0,61,0.00,,,0.00,WeatherCatV1.10B1784,2013-10-09 16:33:00,
2013-10-09 12:38:00,58.4,45.4,30.42,SE,125,1.0,2.0,62,0.00,,,0.00,WeatherCatV1.10B1784,2013-10-09 16:38:00,
2013-10-09 12:43:00,58.6,45.2,30.42,ESE,122,1.0,3.0,61,0.00,,,0.00,WeatherCatV1.10B1784,2013-10-09 16:43:00,
2013-10-09 12:48:00,58.8,45.4,30.41,SE,130,1.0,7.0,61,0.00,,,0.00,WeatherCatV1.10B1784,2013-10-09 16:48:00,
2013-10-09 12:53:00,58.6,44.8,30.41,East,87,0.0,4.0,60,0.00,,,0.00,WeatherCatV1.10B1784,2013-10-09 16:53:00,
2013-10-09 12:58:00,58.4,44.6,30.41,SE,138,0.0,8.0,60,0.00,,,0.00,WeatherCatV1.10B1784,2013-10-09 16:58:00,
2013-10-09 13:03:00,58.5,45.5,30.40,SE,127,0.0,4.0,62,0.00,,,0.00,WeatherCatV1.10B1784,2013-10-09 17:03:00,
2013-10-09 13:08:00,58.6,45.2,30.40,East,88,0.0,1.0,61,0.00,,,0.00,WeatherCatV1.10B1784,2013-10-09 17:08:00,
2013-10-09 13:13:00,58.7,46.1,30.40,ESE,115,0.0,3.0,63,0.00,,,0.00,WeatherCatV1.10B1784,2013-10-09 17:13:00,
2013-10-09 13:18:00,58.7,46.1,30.40,East,95,2.0,3.0,63,0.00,,,0.00,WeatherCatV1.10B1784,2013-10-09 17:18:00,
2013-10-09 13:23:00,59.1,45.7,30.40,East,92,1.0,5.0,61,0.00,,,0.00,WeatherCatV1.10B1784,2013-10-09 17:23:00,
2013-10-09 13:28:00,59.4,45.5,30.40,SE,133,0.0,0.0,60,0.00,,,0.00,WeatherCatV1.10B1784,2013-10-09 17:28:00,
2013-10-09 13:33:00,59.7,46.7,30.40,SE,133,1.0,2.0,62,0.00,,,0.00,WeatherCatV1.10B1784,2013-10-09 17:33:00,
2013-10-09 13:38:00,59.5,46.5,30.40,SE,133,0.0,0.0,62,0.00,,,0.00,WeatherCatV1.10B1784,2013-10-09 17:38:00,
2013-10-09 13:43:00,59.3,45.8,30.40,SE,132,0.0,3.0,61,0.00,,,0.00,WeatherCatV1.10B1784,2013-10-09 17:43:00,
2013-10-09 13:48:00,59.2,45.8,30.40,SE,132,0.0,1.0,61,0.00,,,0.00,WeatherCatV1.10B1784,2013-10-09 17:48:00,
2013-10-09 13:53:00,59.5,45.6,30.39,ESE,117,1.0,8.0,60,0.00,,,0.00,WeatherCatV1.10B1784,2013-10-09 17:53:00,
2013-10-09 13:58:00,59.8,45.4,30.39,ENE,75,0.0,5.0,59,0.00,,,0.00,WeatherCatV1.10B1784,2013-10-09 17:58:00,
2013-10-09 14:03:00,59.9,45.1,30.39,ENE,77,0.0,1.0,58,0.00,,,0.00,WeatherCatV1.10B1784,2013-10-09 18:03:00,
2013-10-09 14:08:00,59.8,45.0,30.39,ENE,78,0.0,1.0,58,0.00,,,0.00,WeatherCatV1.10B1784,2013-10-09 18:08:00,
2013-10-09 14:13:00,59.5,46.0,30.39,NW,320,0.0,1.0,61,0.00,,,0.00,WeatherCatV1.10B1784,2013-10-09 18:13:00,
2013-10-09 14:18:00,59.9,45.5,30.38,NW,320,0.0,1.0,59,0.00,,,0.00,WeatherCatV1.10B1784,2013-10-09 18:18:00,
2013-10-09 14:23:00,60.0,46.5,30.38,SE,136,0.0,1.0,61,0.00,,,0.00,WeatherCatV1.10B1784,2013-10-09 18:23:00,
2013-10-09 14:28:00,60.5,46.1,30.38,SE,134,0.0,5.0,59,0.00,,,0.00,WeatherCatV1.10B1784,2013-10-09 18:28:00,
2013-10-09 14:33:00,60.8,45.9,30.37,ESE,110,1.0,5.0,58,0.00,,,0.00,WeatherCatV1.10B1784,2013-10-09 18:33:00,
2013-10-09 14:38:00,61.0,46.1,30.38,SE,127,0.0,5.0,58,0.00,,,0.00,WeatherCatV1.10B1784,2013-10-09 18:38:00,
2013-10-09 14:43:00,61.1,45.7,30.38,SE,131,0.0,2.0,57,0.00,,,0.00,WeatherCatV1.10B1784,2013-10-09 18:43:00,
2013-10-09 14:48:00,61.3,46.4,30.37,ESE,123,0.0,1.0,58,0.00,,,0.00,WeatherCatV1.10B1784,2013-10-09 18:48:00,
2013-10-09 14:53:00,61.6,47.1,30.37,SE,124,0.0,3.0,59,0.00,,,0.00,WeatherCatV1.10B1784,2013-10-09 18:53:00,
2013-10-09 14:58:00,61.8,46.4,30.37,SE,124,0.0,0.0,57,0.00,,,0.00,WeatherCatV1.10B1784,2013-10-09 18:58:00,
2013-10-09 15:03:00,62.3,46.9,30.37,SE,124,0.0,1.0,57,0.00,,,0.00,WeatherCatV1.10B1784,2013-10-09 19:03:00,
2013-10-09 15:08:00,62.7,47.2,30.37,SE,124,0.0,0.0,57,0.00,,,0.00,WeatherCatV1.10B1784,2013-10-09 19:08:00,
2013-10-09 15:13:00,62.8,47.3,30.37,ESE,116,0.0,8.0,57,0.00,,,0.00,WeatherCatV1.10B1784,2013-10-09 19:13:00,
2013-10-09 15:18:00,62.9,47.0,30.37,ESE,115,0.0,0.0,56,0.00,,,0.00,WeatherCatV1.10B1784,2013-10-09 19:18:00,
2013-10-09 15:23:00,62.3,46.4,30.37,ESE,115,0.0,0.0,56,0.00,,,0.00,WeatherCatV1.10B1784,2013-10-09 19:23:00,
2013-10-09 15:28:00,62.6,47.1,30.37,ESE,115,0.0,1.0,57,0.00,,,0.00,WeatherCatV1.10B1784,2013-10-09 19:28:00,
2013-10-09 15:33:00,63.0,47.1,30.37,ESE,115,0.0,1.0,56,0.00,,,0.00,WeatherCatV1.10B1784,2013-10-09 19:33:00,
2013-10-09 15:38:00,63.2,47.7,30.36,ESE,115,3.0,4.0,57,0.00,,,0.00,WeatherCatV1.10B1784,2013-10-09 19:38:00,
2013-10-09 15:43:00,63.4,47.9,30.36,SE,135,0.0,1.0,57,0.00,,,0.00,WeatherCatV1.10B1784,2013-10-09 19:43:00,
2013-10-09 15:48:00,63.0,47.1,30.36,ENE,71,0.0,3.0,56,0.00,,,0.00,WeatherCatV1.10B1784,2013-10-09 19:48:00,
2013-10-09 15:53:00,62.5,47.1,30.36,ENE,73,2.0,2.0,57,0.00,,,0.00,WeatherCatV1.10B1784,2013-10-09 19:53:00,
2013-10-09 15:58:00,62.3,47.8,30.36,ENE,73,0.0,0.0,59,0.00,,,0.00,WeatherCatV1.10B1784,2013-10-09 19:58:00,
2013-10-09 16:03:00,62.4,47.4,30.36,ENE,73,0.0,0.0,58,0.00,,,0.00,WeatherCatV1.10B1784,2013-10-09 20:03:00,
2013-10-09 16:08:00,62.8,46.9,30.36,ENE,64,0.0,3.0,56,0.00,,,0.00,WeatherCatV1.10B1784,2013-10-09 20:08:00,
2013-10-09 16:13:00,62.3,46.4,30.36,East,79,0.0,7.0,56,0.00,,,0.00,WeatherCatV1.10B1784,2013-10-09 20:13:00,
2013-10-09 16:18:00,62.1,46.7,30.36,East,79,0.0,1.0,57,0.00,,,0.00,WeatherCatV1.10B1784,2013-10-09 20:18:00,
2013-10-09 16:23:00,62.3,46.9,30.36,East,79,0.0,0.0,57,0.00,,,0.00,WeatherCatV1.10B1784,2013-10-09 20:23:00,
2013-10-09 16:28:00,62.4,46.5,30.36,East,79,1.0,1.0,56,0.00,,,0.00,WeatherCatV1.10B1784,2013-10-09 20:28:00,
2013-10-09 16:33:00,62.7,46.3,30.35,SE,132,0.0,0.0,55,0.00,,,0.00,WeatherCatV1.10B1784,2013-10-09 20:33:00,
2013-10-09 16:38:00,62.5,47.1,30.35,SE,132,0.0,0.0,57,0.00,,,0.00,WeatherCatV1.10B1784,2013-10-09 20:38:00,
2013-10-09 16:43:00,62.2,46.3,30.35,SE,132,0.0,2.0,56,0.00,,,0.00,WeatherCatV1.10B1784,2013-10-09 20:43:00,
2013-10-09 16:48:00,61.9,47.0,30.35,SE,132,0.0,0.0,58,0.00,,,0.00,WeatherCatV1.10B1784,2013-10-09 20:48:00,
2013-10-09 16:53:00,62.0,47.0,30.35,SE,130,0.0,4.0,58,0.00,,,0.00,WeatherCatV1.10B1784,2013-10-09 20:53:00,
2013-10-09 16:58:00,61.1,47.1,30.35,SE,130,0.0,0.0,60,0.00,,,0.00,WeatherCatV1.10B1784,2013-10-09 20:58:00,
2013-10-09 17:03:00,60.5,47.0,30.35,SE,130,0.0,2.0,61,0.00,,,0.00,WeatherCatV1.10B1784,2013-10-09 21:03:00,
2013-10-09 17:08:00,59.8,47.2,30.35,SE,130,0.0,0.0,63,0.00,,,0.00,WeatherCatV1.10B1784,2013-10-09 21:08:00,
2013-10-09 17:13:00,59.4,46.4,30.35,SE,130,0.0,0.0,62,0.00,,,0.00,WeatherCatV1.10B1784,2013-10-09 21:13:00,
2013-10-09 17:18:00,59.2,47.0,30.35,SE,130,0.0,0.0,64,0.00,,,0.00,WeatherCatV1.10B1784,2013-10-09 21:18:00,
2013-10-09 17:23:00,58.8,47.9,30.36,SE,130,0.0,1.0,67,0.00,,,0.00,WeatherCatV1.10B1784,2013-10-09 21:23:00,
2013-10-09 17:28:00,58.5,47.6,30.35,SE,130,0.0,0.0,67,0.00,,,0.00,WeatherCatV1.10B1784,2013-10-09 21:28:00,
2013-10-09 17:33:00,58.3,47.8,30.35,SE,130,0.0,0.0,68,0.00,,,0.00,WeatherCatV1.10B1784,2013-10-09 21:33:00,
2013-10-09 17:38:00,58.0,48.6,30.35,SE,130,0.0,0.0,71,0.00,,,0.00,WeatherCatV1.10B1784,2013-10-09 21:38:00,
2013-10-09 17:43:00,57.5,48.5,30.35,SE,130,0.0,0.0,72,0.00,,,0.00,WeatherCatV1.10B1784,2013-10-09 21:43:00,
2013-10-09 17:48:00,56.8,48.2,30.35,SE,130,0.0,0.0,73,0.00,,,0.00,WeatherCatV1.10B1784,2013-10-09 21:48:00,
2013-10-09 17:53:00,56.4,48.6,30.35,SE,130,0.0,0.0,75,0.00,,,0.00,WeatherCatV1.10B1784,2013-10-09 21:53:00,
2013-10-09 17:58:00,55.7,47.9,30.35,SE,130,0.0,0.0,75,0.00,,,0.00,WeatherCatV1.10B1784,2013-10-09 21:58:00,
2013-10-09 18:03:00,55.2,48.5,30.35,SE,130,0.0,0.0,78,0.00,,,0.00,WeatherCatV1.10B1784,2013-10-09 22:03:00,
2013-10-09 18:08:00,54.6,48.6,30.35,SE,130,0.0,0.0,80,0.00,,,0.00,WeatherCatV1.10B1784,2013-10-09 22:08:00,
2013-10-09 18:13:00,54.1,48.1,30.35,SE,130,0.0,0.0,80,0.00,,,0.00,WeatherCatV1.10B1784,2013-10-09 22:13:00,
2013-10-09 18:18:00,53.6,47.9,30.35,SE,130,0.0,0.0,81,0.00,,,0.00,WeatherCatV1.10B1784,2013-10-09 22:18:00,
2013-10-09 18:23:00,53.1,47.1,30.35,SE,130,0.0,0.0,80,0.00,,,0.00,WeatherCatV1.10B1784,2013-10-09 22:23:00,
2013-10-09 18:28:00,52.6,47.3,30.35,SE,130,0.0,0.0,82,0.00,,,0.00,WeatherCatV1.10B1784,2013-10-09 22:28:00,
2013-10-09 18:33:00,52.1,47.1,30.35,SE,130,0.0,0.0,83,0.00,,,0.00,WeatherCatV1.10B1784,2013-10-09 22:33:00,
2013-10-09 18:38:00,51.7,46.4,30.35,SE,130,0.0,0.0,82,0.00,,,0.00,WeatherCatV1.10B1784,2013-10-09 22:38:00,
2013-10-09 18:43:00,51.4,46.4,30.35,SE,130,0.0,0.0,83,0.00,,,0.00,WeatherCatV1.10B1784,2013-10-09 22:43:00,
2013-10-09 18:48:00,51.1,46.4,30.36,SE,130,0.0,0.0,84,0.00,,,0.00,WeatherCatV1.10B1784,2013-10-09 22:48:00,
2013-10-09 18:53:00,50.9,45.9,30.35,SE,130,0.0,0.0,83,0.00,,,0.00,WeatherCatV1.10B1784,2013-10-09 22:53:00,
2013-10-09 18:58:00,50.6,45.6,30.35,SE,130,0.0,0.0,83,0.00,,,0.00,WeatherCatV1.10B1784,2013-10-09 22:58:00,
2013-10-09 19:03:00,50.4,46.1,30.35,SE,130,0.0,0.0,85,0.00,,,0.00,WeatherCatV1.10B1784,2013-10-09 23:03:00,
2013-10-09 19:08:00,50.2,45.9,30.35,SE,130,0.0,0.0,85,0.00,,,0.00,WeatherCatV1.10B1784,2013-10-09 23:08:00,
2013-10-09 19:13:00,49.9,45.6,30.35,SE,130,0.0,0.0,85,0.00,,,0.00,WeatherCatV1.10B1784,2013-10-09 23:13:00,
2013-10-09 19:18:00,49.7,45.4,30.35,SE,130,0.0,0.0,85,0.00,,,0.00,WeatherCatV1.10B1784,2013-10-09 23:18:00,
2013-10-09 19:23:00,49.6,45.6,30.35,SE,130,0.0,0.0,86,0.00,,,0.00,WeatherCatV1.10B1784,2013-10-09 23:23:00,
2013-10-09 19:28:00,49.4,45.7,30.35,SE,130,0.0,0.0,87,0.00,,,0.00,WeatherCatV1.10B1784,2013-10-09 23:28:00,
2013-10-09 19:33:00,49.3,45.6,30.35,SE,130,0.0,0.0,87,0.00,,,0.00,WeatherCatV1.10B1784,2013-10-09 23:33:00,
2013-10-09 19:38:00,49.1,45.7,30.35,SE,130,0.0,0.0,88,0.00,,,0.00,WeatherCatV1.10B1784,2013-10-09 23:38:00,
2013-10-09 19:43:00,49.0,45.9,30.35,SE,130,0.0,0.0,89,0.00,,,0.00,WeatherCatV1.10B1784,2013-10-09 23:43:00,
2013-10-09 19:48:00,48.8,45.7,30.35,SE,130,0.0,0.0,89,0.00,,,0.00,WeatherCatV1.10B1784,2013-10-09 23:48:00,
2013-10-09 19:53:00,48.7,45.6,30.35,SE,130,0.0,0.0,89,0.00,,,0.00,WeatherCatV1.10B1784,2013-10-09 23:53:00,
2013-10-09 19:58:00,48.6,45.5,30.35,SE,130,0.0,0.0,89,0.00,,,0.00,WeatherCatV1.10B1784,2013-10-09 23:58:00,
2013-10-09 20:03:00,48.5,45.7,30.35,SE,130,0.0,0.0,90,0.00,,,0.00,WeatherCatV1.10B1784,2013-10-10 00:03:00,
2013-10-09 20:08:00,48.4,45.3,30.35,SE,130,0.0,0.0,89,0.00,,,0.00,WeatherCatV1.10B1784,2013-10-10 00:08:00,
2013-10-09 20:13:00,48.2,45.4,30.35,SE,130,0.0,0.0,90,0.00,,,0.00,WeatherCatV1.10B1784,2013-10-10 00:13:00,
2013-10-09 20:18:00,48.1,45.3,30.35,SE,130,0.0,0.0,90,0.00,,,0.00,WeatherCatV1.10B1784,2013-10-10 00:18:00,
2013-10-09 20:23:00,47.9,45.1,30.35,SE,130,0.0,0.0,90,0.00,,,0.00,WeatherCatV1.10B1784,2013-10-10 00:23:00,
2013-10-09 20:28:00,47.8,45.0,30.35,SE,130,0.0,0.0,90,0.00,,,0.00,WeatherCatV1.10B1784,2013-10-10 00:28:00,
2013-10-09 20:33:00,47.6,44.8,30.35,SE,130,0.0,0.0,90,0.00,,,0.00,WeatherCatV1.10B1784,2013-10-10 00:33:00,
2013-10-09 20:38:00,47.5,45.0,30.35,SE,130,0.0,0.0,91,0.00,,,0.00,WeatherCatV1.10B1784,2013-10-10 00:38:00,
2013-10-09 20:43:00,47.4,44.9,30.35,SE,130,0.0,0.0,91,0.00,,,0.00,WeatherCatV1.10B1784,2013-10-10 00:43:00,
2013-10-09 20:48:00,47.2,44.7,30.35,SE,130,0.0,0.0,91,0.00,,,0.00,WeatherCatV1.10B1784,2013-10-10 00:48:00,
2013-10-09 20:53:00,47.1,44.9,30.35,SE,130,0.0,0.0,92,0.00,,,0.00,WeatherCatV1.10B1784,2013-10-10 00:53:00,
2013-10-09 20:58:00,46.9,44.7,30.35,SE,130,0.0,0.0,92,0.00,,,0.00,WeatherCatV1.10B1784,2013-10-10 00:58:00,
2013-10-09 21:03:00,46.7,44.2,30.35,SE,130,0.0,0.0,91,0.00,,,0.00,WeatherCatV1.10B1784,2013-10-10 01:03:00,
2013-10-09 21:08:00,46.5,44.0,30.35,SE,130,0.0,0.0,91,0.00,,,0.00,WeatherCatV1.10B1784,2013-10-10 01:08:00,
2013-10-09 21:13:00,46.4,44.2,30.35,SE,130,0.0,0.0,92,0.00,,,0.00,WeatherCatV1.10B1784,2013-10-10 01:13:00,
2013-10-09 21:18:00,46.3,44.1,30.35,SE,130,0.0,0.0,92,0.00,,,0.00,WeatherCatV1.10B1784,2013-10-10 01:18:00,
2013-10-09 21:23:00,46.1,43.9,30.35,SE,130,0.0,0.0,92,0.00,,,0.00,WeatherCatV1.10B1784,2013-10-10 01:23:00,
2013-10-09 21:28:00,46.0,43.8,30.35,SE,130,0.0,0.0,92,0.00,,,0.00,WeatherCatV1.10B1784,2013-10-10 01:28:00,
2013-10-09 21:33:00,45.8,43.6,30.35,SE,130,0.0,0.0,92,0.00,,,0.00,WeatherCatV1.10B1784,2013-10-10 01:33:00,
2013-10-09 21:38:00,45.8,43.6,30.35,SE,130,0.0,0.0,92,0.00,,,0.00,WeatherCatV1.10B1784,2013-10-10 01:38:00,
2013-10-09 21:43:00,45.7,43.5,30.35,SE,130,0.0,0.0,92,0.00,,,0.00,WeatherCatV1.10B1784,2013-10-10 01:43:00,
2013-10-09 21:48:00,45.6,43.7,30.35,SE,130,0.0,0.0,93,0.00,,,0.00,WeatherCatV1.10B1784,2013-10-10 01:48:00,
2013-10-09 21:53:00,45.5,43.6,30.35,SE,130,0.0,0.0,93,0.00,,,0.00,WeatherCatV1.10B1784,2013-10-10 01:53:00,
2013-10-09 21:58:00,45.4,43.5,30.35,SE,130,0.0,0.0,93,0.00,,,0.00,WeatherCatV1.10B1784,2013-10-10 01:58:00,
2013-10-09 22:03:00,45.4,43.5,30.35,SE,130,0.0,0.0,93,0.00,,,0.00,WeatherCatV1.10B1784,2013-10-10 02:03:00,
2013-10-09 22:08:00,45.2,43.3,30.35,SE,130,0.0,0.0,93,0.00,,,0.00,WeatherCatV1.10B1784,2013-10-10 02:08:00,
2013-10-09 22:13:00,45.1,43.2,30.35,SE,130,0.0,0.0,93,0.00,,,0.00,WeatherCatV1.10B1784,2013-10-10 02:13:00,
2013-10-09 22:18:00,45.0,43.1,30.35,SE,130,0.0,0.0,93,0.00,,,0.00,WeatherCatV1.10B1784,2013-10-10 02:18:00,
2013-10-09 22:23:00,44.9,43.0,30.35,SE,130,0.0,0.0,93,0.00,,,0.00,WeatherCatV1.10B1784,2013-10-10 02:23:00,
2013-10-09 22:28:00,44.8,42.9,30.35,SE,130,0.0,0.0,93,0.00,,,0.00,WeatherCatV1.10B1784,2013-10-10 02:28:00,
2013-10-09 22:33:00,44.7,42.8,30.35,SE,130,0.0,0.0,93,0.00,,,0.00,WeatherCatV1.10B1784,2013-10-10 02:33:00,
2013-10-09 22:38:00,44.6,42.7,30.35,SE,130,0.0,0.0,93,0.00,,,0.00,WeatherCatV1.10B1784,2013-10-10 02:38:00,
2013-10-09 22:43:00,44.5,42.6,30.35,SE,130,0.0,0.0,93,0.00,,,0.00,WeatherCatV1.10B1784,2013-10-10 02:43:00,
2013-10-09 22:48:00,44.5,42.6,30.34,SE,130,0.0,0.0,93,0.00,,,0.00,WeatherCatV1.10B1784,2013-10-10 02:48:00,
2013-10-09 22:53:00,44.6,43.0,30.34,SE,130,0.0,0.0,94,0.00,,,0.00,WeatherCatV1.10B1784,2013-10-10 02:53:00,
2013-10-09 22:58:00,44.5,42.6,30.34,SE,130,0.0,0.0,93,0.00,,,0.00,WeatherCatV1.10B1784,2013-10-10 02:58:00,
2013-10-09 23:03:00,44.3,42.4,30.34,SE,130,0.0,0.0,93,0.00,,,0.00,WeatherCatV1.10B1784,2013-10-10 03:03:00,
2013-10-09 23:08:00,44.3,42.7,30.34,SE,130,0.0,0.0,94,0.00,,,0.00,WeatherCatV1.10B1784,2013-10-10 03:08:00,
2013-10-09 23:13:00,44.2,42.6,30.34,SE,130,0.0,0.0,94,0.00,,,0.00,WeatherCatV1.10B1784,2013-10-10 03:13:00,
2013-10-09 23:18:00,44.1,42.5,30.34,SE,130,0.0,0.0,94,0.00,,,0.00,WeatherCatV1.10B1784,2013-10-10 03:18:00,
2013-10-09 23:23:00,44.0,42.4,30.34,SE,130,0.0,0.0,94,0.00,,,0.00,WeatherCatV1.10B1784,2013-10-10 03:23:00,
2013-10-09 23:28:00,43.9,42.3,30.34,SE,130,0.0,0.0,94,0.00,,,0.00,WeatherCatV1.10B1784,2013-10-10 03:28:00,
2013-10-09 23:33:00,43.8,42.2,30.34,SE,130,0.0,0.0,94,0.00,,,0.00,WeatherCatV1.10B1784,2013-10-10 03:33:00,
2013-10-09 23:38:00,43.8,42.2,30.34,SE,130,0.0,0.0,94,0.00,,,0.00,WeatherCatV1.10B1784,2013-10-10 03:38:00,
2013-10-09 23:43:00,43.8,42.2,30.34,SE,130,0.0,0.0,94,0.00,,,0.00,WeatherCatV1.10B1784,2013-10-10 03:43:00,
2013-10-09 23:48:00,43.7,42.1,30.34,SE,130,0.0,0.0,94,0.00,,,0.00,WeatherCatV1.10B1784,2013-10-10 03:48:00,
2013-10-09 23:53:00,43.6,42.0,30.34,SE,130,0.0,0.0,94,0.00,,,0.00,WeatherCatV1.10B1784,2013-10-10 03:53:00,
2013-10-09 23:58:00,43.5,41.9,30.33,SE,130,0.0,0.0,94,0.00,,,0.00,WeatherCatV1.10B1784,2013-10-10 03:58:00,